sensor_id;sensor_type;location;lat;lon;timestamp;P1;durP1;ratioP1;P2;durP2;ratioP2
13347;SDS011;6743;49.934;9.138;2022-08-19T00:01:50;3.80;;;3.37;;
13347;SDS011;6743;49.934;9.138;2022-08-19T00:04:18;4.70;;;3.83;;
13347;SDS011;6743;49.934;9.138;2022-08-19T00:06:46;4.40;;;3.92;;
13347;SDS011;6743;49.934;9.138;2022-08-19T00:09:15;3.67;;;3.37;;
13347;SDS011;6743;49.934;9.138;2022-08-19T00:11:44;4.55;;;3.62;;
13347;SDS011;6743;49.934;9.138;2022-08-19T00:14:12;3.72;;;3.30;;
13347;SDS011;6743;49.934;9.138;2022-08-19T00:16:41;3.47;;;3.17;;
13347;SDS011;6743;49.934;9.138;2022-08-19T00:19:09;3.35;;;3.08;;
13347;SDS011;6743;49.934;9.138;2022-08-19T00:21:35;4.30;;;3.83;;
13347;SDS011;6743;49.934;9.138;2022-08-19T00:24:05;3.83;;;3.40;;
13347;SDS011;6743;49.934;9.138;2022-08-19T00:26:32;4.55;;;3.12;;
13347;SDS011;6743;49.934;9.138;2022-08-19T00:28:58;3.92;;;3.42;;
13347;SDS011;6743;49.934;9.138;2022-08-19T00:31:25;3.67;;;3.37;;
13347;SDS011;6743;49.934;9.138;2022-08-19T00:33:52;3.92;;;3.53;;
13347;SDS011;6743;49.934;9.138;2022-08-19T00:36:18;3.78;;;3.30;;
13347;SDS011;6743;49.934;9.138;2022-08-19T00:38:45;4.10;;;3.33;;
13347;SDS011;6743;49.934;9.138;2022-08-19T00:41:12;4.62;;;4.12;;
13347;SDS011;6743;49.934;9.138;2022-08-19T00:43:40;4.05;;;3.62;;
13347;SDS011;6743;49.934;9.138;2022-08-19T00:46:06;4.43;;;3.55;;
13347;SDS011;6743;49.934;9.138;2022-08-19T00:48:32;3.78;;;3.47;;
13347;SDS011;6743;49.934;9.138;2022-08-19T00:51:01;3.95;;;3.55;;
13347;SDS011;6743;49.934;9.138;2022-08-19T00:53:29;4.25;;;3.85;;
13347;SDS011;6743;49.934;9.138;2022-08-19T00:55:59;4.30;;;3.75;;
13347;SDS011;6743;49.934;9.138;2022-08-19T00:58:28;5.05;;;4.22;;
13347;SDS011;6743;49.934;9.138;2022-08-19T01:00:58;4.72;;;3.87;;
13347;SDS011;6743;49.934;9.138;2022-08-19T01:03:30;4.47;;;4.07;;
13347;SDS011;6743;49.934;9.138;2022-08-19T01:05:56;3.72;;;3.40;;
13347;SDS011;6743;49.934;9.138;2022-08-19T01:08:22;4.35;;;3.95;;
13347;SDS011;6743;49.934;9.138;2022-08-19T01:10:50;4.07;;;3.67;;
13347;SDS011;6743;49.934;9.138;2022-08-19T01:13:20;4.35;;;3.60;;
13347;SDS011;6743;49.934;9.138;2022-08-19T01:15:49;4.78;;;3.87;;
13347;SDS011;6743;49.934;9.138;2022-08-19T01:18:18;4.47;;;3.83;;
13347;SDS011;6743;49.934;9.138;2022-08-19T01:20:45;4.10;;;3.70;;
13347;SDS011;6743;49.934;9.138;2022-08-19T01:23:13;5.30;;;4.20;;
13347;SDS011;6743;49.934;9.138;2022-08-19T01:25:41;5.00;;;3.75;;
13347;SDS011;6743;49.934;9.138;2022-08-19T01:28:14;4.93;;;4.07;;
13347;SDS011;6743;49.934;9.138;2022-08-19T01:30:43;5.10;;;4.15;;
13347;SDS011;6743;49.934;9.138;2022-08-19T01:33:09;4.55;;;3.67;;
13347;SDS011;6743;49.934;9.138;2022-08-19T01:35:36;5.20;;;4.10;;
13347;SDS011;6743;49.934;9.138;2022-08-19T01:38:04;4.57;;;4.00;;
13347;SDS011;6743;49.934;9.138;2022-08-19T01:40:34;4.50;;;4.10;;
13347;SDS011;6743;49.934;9.138;2022-08-19T01:43:03;5.22;;;4.37;;
13347;SDS011;6743;49.934;9.138;2022-08-19T01:45:31;5.20;;;3.95;;
13347;SDS011;6743;49.934;9.138;2022-08-19T01:48:00;4.50;;;3.72;;
13347;SDS011;6743;49.934;9.138;2022-08-19T01:50:26;4.72;;;4.12;;
13347;SDS011;6743;49.934;9.138;2022-08-19T01:52:53;6.65;;;4.60;;
13347;SDS011;6743;49.934;9.138;2022-08-19T01:55:20;6.25;;;4.00;;
13347;SDS011;6743;49.934;9.138;2022-08-19T01:57:50;4.60;;;3.80;;
13347;SDS011;6743;49.934;9.138;2022-08-19T02:00:20;5.43;;;4.32;;
13347;SDS011;6743;49.934;9.138;2022-08-19T02:02:48;4.93;;;4.28;;
13347;SDS011;6743;49.934;9.138;2022-08-19T02:05:15;5.15;;;4.65;;
13347;SDS011;6743;49.934;9.138;2022-08-19T02:07:43;5.45;;;3.92;;
13347;SDS011;6743;49.934;9.138;2022-08-19T02:10:18;4.57;;;3.33;;
13347;SDS011;6743;49.934;9.138;2022-08-19T02:12:50;4.62;;;4.10;;
13347;SDS011;6743;49.934;9.138;2022-08-19T02:15:16;4.68;;;3.70;;
13347;SDS011;6743;49.934;9.138;2022-08-19T02:17:44;5.80;;;4.32;;
13347;SDS011;6743;49.934;9.138;2022-08-19T02:20:11;4.10;;;3.55;;
13347;SDS011;6743;49.934;9.138;2022-08-19T02:22:38;4.82;;;4.20;;
13347;SDS011;6743;49.934;9.138;2022-08-19T02:25:05;4.97;;;4.47;;
13347;SDS011;6743;49.934;9.138;2022-08-19T02:27:32;4.95;;;4.12;;
13347;SDS011;6743;49.934;9.138;2022-08-19T02:29:59;4.20;;;3.60;;
13347;SDS011;6743;49.934;9.138;2022-08-19T02:32:26;4.85;;;3.95;;
13347;SDS011;6743;49.934;9.138;2022-08-19T02:34:52;4.07;;;3.62;;
13347;SDS011;6743;49.934;9.138;2022-08-19T02:37:18;6.03;;;4.37;;
13347;SDS011;6743;49.934;9.138;2022-08-19T02:40:02;4.75;;;3.95;;
13347;SDS011;6743;49.934;9.138;2022-08-19T02:42:29;3.35;;;2.97;;
13347;SDS011;6743;49.934;9.138;2022-08-19T02:44:56;4.72;;;4.03;;
13347;SDS011;6743;49.934;9.138;2022-08-19T02:47:23;3.75;;;3.33;;
13347;SDS011;6743;49.934;9.138;2022-08-19T02:49:49;5.05;;;3.85;;
13347;SDS011;6743;49.934;9.138;2022-08-19T02:52:15;4.53;;;3.58;;
13347;SDS011;6743;49.934;9.138;2022-08-19T02:54:41;5.70;;;4.25;;
13347;SDS011;6743;49.934;9.138;2022-08-19T02:57:07;5.50;;;4.28;;
13347;SDS011;6743;49.934;9.138;2022-08-19T02:59:33;4.95;;;3.72;;
13347;SDS011;6743;49.934;9.138;2022-08-19T03:01:59;4.97;;;4.37;;
13347;SDS011;6743;49.934;9.138;2022-08-19T03:04:26;4.78;;;3.80;;
13347;SDS011;6743;49.934;9.138;2022-08-19T03:06:54;5.72;;;4.07;;
13347;SDS011;6743;49.934;9.138;2022-08-19T03:09:20;4.80;;;3.87;;
13347;SDS011;6743;49.934;9.138;2022-08-19T03:11:46;5.55;;;4.20;;
13347;SDS011;6743;49.934;9.138;2022-08-19T03:14:13;4.85;;;3.70;;
13347;SDS011;6743;49.934;9.138;2022-08-19T03:16:40;4.28;;;3.67;;
13347;SDS011;6743;49.934;9.138;2022-08-19T03:19:08;6.45;;;4.53;;
13347;SDS011;6743;49.934;9.138;2022-08-19T03:21:34;4.80;;;4.20;;
13347;SDS011;6743;49.934;9.138;2022-08-19T03:24:01;5.68;;;4.07;;
13347;SDS011;6743;49.934;9.138;2022-08-19T03:26:32;5.00;;;3.87;;
13347;SDS011;6743;49.934;9.138;2022-08-19T03:29:00;5.43;;;4.22;;
13347;SDS011;6743;49.934;9.138;2022-08-19T03:31:27;3.97;;;3.58;;
13347;SDS011;6743;49.934;9.138;2022-08-19T03:33:57;5.00;;;4.00;;
13347;SDS011;6743;49.934;9.138;2022-08-19T03:36:24;4.35;;;3.95;;
13347;SDS011;6743;49.934;9.138;2022-08-19T03:38:53;5.47;;;4.43;;
13347;SDS011;6743;49.934;9.138;2022-08-19T03:41:24;5.87;;;4.37;;
13347;SDS011;6743;49.934;9.138;2022-08-19T03:43:52;4.28;;;3.83;;
13347;SDS011;6743;49.934;9.138;2022-08-19T03:46:20;5.53;;;4.22;;
13347;SDS011;6743;49.934;9.138;2022-08-19T03:48:49;6.25;;;4.43;;
13347;SDS011;6743;49.934;9.138;2022-08-19T03:51:19;5.57;;;4.65;;
13347;SDS011;6743;49.934;9.138;2022-08-19T03:53:46;4.37;;;3.78;;
13347;SDS011;6743;49.934;9.138;2022-08-19T03:56:13;4.15;;;3.65;;
13347;SDS011;6743;49.934;9.138;2022-08-19T03:58:40;4.20;;;3.80;;
13347;SDS011;6743;49.934;9.138;2022-08-19T04:01:07;4.80;;;3.97;;
13347;SDS011;6743;49.934;9.138;2022-08-19T04:03:34;4.97;;;4.43;;
13347;SDS011;6743;49.934;9.138;2022-08-19T04:06:08;4.22;;;3.70;;
13347;SDS011;6743;49.934;9.138;2022-08-19T04:08:35;5.05;;;4.00;;
13347;SDS011;6743;49.934;9.138;2022-08-19T04:11:01;4.03;;;3.60;;
13347;SDS011;6743;49.934;9.138;2022-08-19T04:13:32;4.40;;;3.78;;
13347;SDS011;6743;49.934;9.138;2022-08-19T04:15:58;4.20;;;3.40;;
13347;SDS011;6743;49.934;9.138;2022-08-19T04:18:24;4.18;;;3.70;;
13347;SDS011;6743;49.934;9.138;2022-08-19T04:20:50;4.43;;;3.42;;
13347;SDS011;6743;49.934;9.138;2022-08-19T04:23:16;5.55;;;4.37;;
13347;SDS011;6743;49.934;9.138;2022-08-19T04:25:45;5.87;;;4.18;;
13347;SDS011;6743;49.934;9.138;2022-08-19T04:28:11;4.85;;;4.20;;
13347;SDS011;6743;49.934;9.138;2022-08-19T04:30:40;5.87;;;4.50;;
13347;SDS011;6743;49.934;9.138;2022-08-19T04:33:07;5.20;;;4.10;;
13347;SDS011;6743;49.934;9.138;2022-08-19T04:35:35;4.45;;;4.03;;
13347;SDS011;6743;49.934;9.138;2022-08-19T04:38:03;5.30;;;4.37;;
13347;SDS011;6743;49.934;9.138;2022-08-19T04:40:29;5.12;;;4.28;;
13347;SDS011;6743;49.934;9.138;2022-08-19T04:43:13;5.32;;;4.37;;
13347;SDS011;6743;49.934;9.138;2022-08-19T04:45:40;6.22;;;4.50;;
13347;SDS011;6743;49.934;9.138;2022-08-19T04:48:06;5.85;;;4.37;;
13347;SDS011;6743;49.934;9.138;2022-08-19T04:50:32;5.07;;;4.22;;
13347;SDS011;6743;49.934;9.138;2022-08-19T04:52:58;4.30;;;3.90;;
13347;SDS011;6743;49.934;9.138;2022-08-19T04:55:24;6.05;;;4.78;;
13347;SDS011;6743;49.934;9.138;2022-08-19T04:57:50;4.62;;;4.22;;
13347;SDS011;6743;49.934;9.138;2022-08-19T05:00:17;5.57;;;4.22;;
13347;SDS011;6743;49.934;9.138;2022-08-19T05:02:43;4.57;;;3.78;;
13347;SDS011;6743;49.934;9.138;2022-08-19T05:05:09;4.05;;;3.65;;
13347;SDS011;6743;49.934;9.138;2022-08-19T05:07:36;4.12;;;3.75;;
13347;SDS011;6743;49.934;9.138;2022-08-19T05:10:02;4.60;;;4.18;;
13347;SDS011;6743;49.934;9.138;2022-08-19T05:12:30;4.40;;;4.00;;
13347;SDS011;6743;49.934;9.138;2022-08-19T05:14:57;4.65;;;4.25;;
13347;SDS011;6743;49.934;9.138;2022-08-19T05:17:23;4.60;;;3.67;;
13347;SDS011;6743;49.934;9.138;2022-08-19T05:19:50;4.57;;;4.07;;
13347;SDS011;6743;49.934;9.138;2022-08-19T05:22:37;6.62;;;4.55;;
13347;SDS011;6743;49.934;9.138;2022-08-19T05:25:04;5.72;;;4.32;;
13347;SDS011;6743;49.934;9.138;2022-08-19T05:27:34;4.75;;;3.92;;
13347;SDS011;6743;49.934;9.138;2022-08-19T05:30:00;5.07;;;4.50;;
13347;SDS011;6743;49.934;9.138;2022-08-19T05:32:27;4.47;;;3.78;;
13347;SDS011;6743;49.934;9.138;2022-08-19T05:34:53;5.25;;;4.07;;
13347;SDS011;6743;49.934;9.138;2022-08-19T05:37:19;4.53;;;4.00;;
13347;SDS011;6743;49.934;9.138;2022-08-19T05:39:46;4.50;;;3.72;;
13347;SDS011;6743;49.934;9.138;2022-08-19T05:42:14;4.65;;;4.05;;
13347;SDS011;6743;49.934;9.138;2022-08-19T05:44:40;3.45;;;3.15;;
13347;SDS011;6743;49.934;9.138;2022-08-19T05:47:09;3.95;;;3.55;;
13347;SDS011;6743;49.934;9.138;2022-08-19T05:49:37;4.80;;;3.67;;
13347;SDS011;6743;49.934;9.138;2022-08-19T05:52:04;3.78;;;3.47;;
13347;SDS011;6743;49.934;9.138;2022-08-19T05:54:32;4.05;;;3.47;;
13347;SDS011;6743;49.934;9.138;2022-08-19T05:57:00;4.10;;;3.40;;
13347;SDS011;6743;49.934;9.138;2022-08-19T05:59:26;4.05;;;3.35;;
13347;SDS011;6743;49.934;9.138;2022-08-19T06:01:53;3.65;;;3.28;;
13347;SDS011;6743;49.934;9.138;2022-08-19T06:04:22;3.53;;;3.20;;
13347;SDS011;6743;49.934;9.138;2022-08-19T06:06:50;3.97;;;3.55;;
13347;SDS011;6743;49.934;9.138;2022-08-19T06:09:18;3.67;;;3.37;;
13347;SDS011;6743;49.934;9.138;2022-08-19T06:11:45;4.37;;;3.55;;
13347;SDS011;6743;49.934;9.138;2022-08-19T06:14:14;4.20;;;3.50;;
13347;SDS011;6743;49.934;9.138;2022-08-19T06:16:42;3.65;;;3.35;;
13347;SDS011;6743;49.934;9.138;2022-08-19T06:19:10;3.58;;;3.28;;
13347;SDS011;6743;49.934;9.138;2022-08-19T06:21:40;3.50;;;3.08;;
13347;SDS011;6743;49.934;9.138;2022-08-19T06:24:08;3.97;;;3.58;;
13347;SDS011;6743;49.934;9.138;2022-08-19T06:26:41;4.72;;;3.70;;
13347;SDS011;6743;49.934;9.138;2022-08-19T06:29:09;4.30;;;3.45;;
13347;SDS011;6743;49.934;9.138;2022-08-19T06:31:40;3.58;;;3.28;;
13347;SDS011;6743;49.934;9.138;2022-08-19T06:34:08;3.87;;;3.47;;
13347;SDS011;6743;49.934;9.138;2022-08-19T06:36:35;3.75;;;3.28;;
13347;SDS011;6743;49.934;9.138;2022-08-19T06:39:04;4.65;;;3.72;;
13347;SDS011;6743;49.934;9.138;2022-08-19T06:41:37;4.12;;;3.55;;
13347;SDS011;6743;49.934;9.138;2022-08-19T06:44:07;5.22;;;3.72;;
13347;SDS011;6743;49.934;9.138;2022-08-19T06:46:33;3.20;;;2.90;;
13347;SDS011;6743;49.934;9.138;2022-08-19T06:49:00;4.30;;;3.83;;
13347;SDS011;6743;49.934;9.138;2022-08-19T06:51:26;4.05;;;3.65;;
13347;SDS011;6743;49.934;9.138;2022-08-19T06:53:53;3.35;;;3.05;;
13347;SDS011;6743;49.934;9.138;2022-08-19T06:56:20;3.75;;;3.22;;
13347;SDS011;6743;49.934;9.138;2022-08-19T06:58:50;4.57;;;3.53;;
13347;SDS011;6743;49.934;9.138;2022-08-19T07:01:18;3.87;;;3.45;;
13347;SDS011;6743;49.934;9.138;2022-08-19T07:03:45;3.20;;;2.90;;
13347;SDS011;6743;49.934;9.138;2022-08-19T07:06:12;3.30;;;2.92;;
13347;SDS011;6743;49.934;9.138;2022-08-19T07:08:42;3.78;;;3.25;;
13347;SDS011;6743;49.934;9.138;2022-08-19T07:11:11;3.47;;;3.17;;
13347;SDS011;6743;49.934;9.138;2022-08-19T07:13:38;3.22;;;2.92;;
13347;SDS011;6743;49.934;9.138;2022-08-19T07:16:05;4.72;;;3.20;;
13347;SDS011;6743;49.934;9.138;2022-08-19T07:18:33;2.92;;;2.70;;
13347;SDS011;6743;49.934;9.138;2022-08-19T07:21:04;3.53;;;3.22;;
13347;SDS011;6743;49.934;9.138;2022-08-19T07:23:31;3.95;;;3.55;;
13347;SDS011;6743;49.934;9.138;2022-08-19T07:25:58;3.20;;;2.90;;
13347;SDS011;6743;49.934;9.138;2022-08-19T07:28:29;3.97;;;3.30;;
13347;SDS011;6743;49.934;9.138;2022-08-19T07:30:55;3.03;;;2.78;;
13347;SDS011;6743;49.934;9.138;2022-08-19T07:33:21;4.32;;;3.60;;
13347;SDS011;6743;49.934;9.138;2022-08-19T07:35:48;3.47;;;3.17;;
13347;SDS011;6743;49.934;9.138;2022-08-19T07:38:15;3.12;;;2.83;;
13347;SDS011;6743;49.934;9.138;2022-08-19T07:40:41;2.95;;;2.72;;
13347;SDS011;6743;49.934;9.138;2022-08-19T07:43:10;2.80;;;2.60;;
13347;SDS011;6743;49.934;9.138;2022-08-19T07:45:36;3.55;;;3.25;;
13347;SDS011;6743;49.934;9.138;2022-08-19T07:48:03;3.47;;;3.12;;
13347;SDS011;6743;49.934;9.138;2022-08-19T07:50:29;3.72;;;3.03;;
13347;SDS011;6743;49.934;9.138;2022-08-19T07:52:56;3.20;;;2.90;;
13347;SDS011;6743;49.934;9.138;2022-08-19T07:55:22;3.28;;;2.70;;
13347;SDS011;6743;49.934;9.138;2022-08-19T07:57:50;2.95;;;2.75;;
13347;SDS011;6743;49.934;9.138;2022-08-19T08:00:17;3.10;;;2.58;;
13347;SDS011;6743;49.934;9.138;2022-08-19T08:02:44;3.37;;;2.92;;
13347;SDS011;6743;49.934;9.138;2022-08-19T08:05:10;2.70;;;2.50;;
13347;SDS011;6743;49.934;9.138;2022-08-19T08:07:54;2.70;;;2.50;;
13347;SDS011;6743;49.934;9.138;2022-08-19T08:10:42;3.33;;;2.97;;
13347;SDS011;6743;49.934;9.138;2022-08-19T08:13:11;3.35;;;2.90;;
13347;SDS011;6743;49.934;9.138;2022-08-19T08:15:46;3.25;;;2.87;;
13347;SDS011;6743;49.934;9.138;2022-08-19T08:18:12;3.12;;;2.83;;
13347;SDS011;6743;49.934;9.138;2022-08-19T08:20:38;3.10;;;2.80;;
13347;SDS011;6743;49.934;9.138;2022-08-19T08:23:04;2.90;;;2.70;;
13347;SDS011;6743;49.934;9.138;2022-08-19T08:25:51;2.87;;;2.67;;
13347;SDS011;6743;49.934;9.138;2022-08-19T08:28:19;3.12;;;2.83;;
13347;SDS011;6743;49.934;9.138;2022-08-19T08:30:47;3.08;;;2.80;;
13347;SDS011;6743;49.934;9.138;2022-08-19T08:33:13;2.45;;;2.30;;
13347;SDS011;6743;49.934;9.138;2022-08-19T08:35:42;2.53;;;2.33;;
13347;SDS011;6743;49.934;9.138;2022-08-19T08:38:08;3.05;;;2.72;;
13347;SDS011;6743;49.934;9.138;2022-08-19T08:40:38;2.55;;;2.35;;
13347;SDS011;6743;49.934;9.138;2022-08-19T08:43:09;2.67;;;2.47;;
13347;SDS011;6743;49.934;9.138;2022-08-19T08:45:44;2.95;;;2.75;;
13347;SDS011;6743;49.934;9.138;2022-08-19T08:48:21;3.25;;;2.70;;
13347;SDS011;6743;49.934;9.138;2022-08-19T08:50:50;2.12;;;1.98;;
13347;SDS011;6743;49.934;9.138;2022-08-19T08:53:20;2.80;;;2.53;;
13347;SDS011;6743;49.934;9.138;2022-08-19T08:55:46;2.45;;;2.28;;
13347;SDS011;6743;49.934;9.138;2022-08-19T08:58:15;2.70;;;2.50;;
13347;SDS011;6743;49.934;9.138;2022-08-19T09:00:47;2.22;;;2.12;;
13347;SDS011;6743;49.934;9.138;2022-08-19T09:03:16;1.92;;;1.73;;
13347;SDS011;6743;49.934;9.138;2022-08-19T09:05:56;3.03;;;2.33;;
13347;SDS011;6743;49.934;9.138;2022-08-19T09:08:29;2.37;;;2.17;;
13347;SDS011;6743;49.934;9.138;2022-08-19T09:11:05;2.80;;;2.60;;
13347;SDS011;6743;49.934;9.138;2022-08-19T09:13:35;1.98;;;1.87;;
13347;SDS011;6743;49.934;9.138;2022-08-19T09:16:11;2.22;;;2.00;;
13347;SDS011;6743;49.934;9.138;2022-08-19T09:18:42;2.10;;;2.00;;
13347;SDS011;6743;49.934;9.138;2022-08-19T09:21:11;1.67;;;1.58;;
13347;SDS011;6743;49.934;9.138;2022-08-19T09:23:38;1.50;;;1.40;;
13347;SDS011;6743;49.934;9.138;2022-08-19T09:26:06;1.60;;;1.50;;
13347;SDS011;6743;49.934;9.138;2022-08-19T09:28:34;1.70;;;1.60;;
13347;SDS011;6743;49.934;9.138;2022-08-19T09:31:02;2.05;;;1.60;;
13347;SDS011;6743;49.934;9.138;2022-08-19T09:33:28;2.10;;;1.83;;
13347;SDS011;6743;49.934;9.138;2022-08-19T09:36:01;1.95;;;1.83;;
13347;SDS011;6743;49.934;9.138;2022-08-19T09:38:31;1.70;;;1.60;;
13347;SDS011;6743;49.934;9.138;2022-08-19T09:41:01;2.05;;;1.85;;
13347;SDS011;6743;49.934;9.138;2022-08-19T09:43:29;2.25;;;2.05;;
13347;SDS011;6743;49.934;9.138;2022-08-19T09:45:56;1.70;;;1.60;;
13347;SDS011;6743;49.934;9.138;2022-08-19T09:48:22;1.60;;;1.50;;
13347;SDS011;6743;49.934;9.138;2022-08-19T09:50:48;1.15;;;1.12;;
13347;SDS011;6743;49.934;9.138;2022-08-19T09:53:16;1.30;;;1.20;;
13347;SDS011;6743;49.934;9.138;2022-08-19T09:55:42;1.55;;;1.45;;
13347;SDS011;6743;49.934;9.138;2022-08-19T09:58:08;1.17;;;1.10;;
13347;SDS011;6743;49.934;9.138;2022-08-19T10:00:36;1.02;;;1.02;;
13347;SDS011;6743;49.934;9.138;2022-08-19T10:03:03;0.70;;;0.70;;
13347;SDS011;6743;49.934;9.138;2022-08-19T10:05:29;0.65;;;0.65;;
13347;SDS011;6743;49.934;9.138;2022-08-19T10:08:14;0.82;;;0.82;;
13347;SDS011;6743;49.934;9.138;2022-08-19T10:10:41;1.05;;;1.02;;
13347;SDS011;6743;49.934;9.138;2022-08-19T10:13:08;0.90;;;0.90;;
13347;SDS011;6743;49.934;9.138;2022-08-19T10:15:35;0.90;;;0.90;;
13347;SDS011;6743;49.934;9.138;2022-08-19T10:18:04;0.90;;;0.90;;
13347;SDS011;6743;49.934;9.138;2022-08-19T10:20:31;1.23;;;1.12;;
13347;SDS011;6743;49.934;9.138;2022-08-19T10:22:57;1.27;;;1.00;;
13347;SDS011;6743;49.934;9.138;2022-08-19T10:25:24;1.02;;;1.02;;
13347;SDS011;6743;49.934;9.138;2022-08-19T10:27:51;1.30;;;1.30;;
13347;SDS011;6743;49.934;9.138;2022-08-19T10:30:18;1.77;;;1.50;;
13347;SDS011;6743;49.934;9.138;2022-08-19T10:32:44;1.10;;;1.10;;
13347;SDS011;6743;49.934;9.138;2022-08-19T10:35:11;1.48;;;1.48;;
13347;SDS011;6743;49.934;9.138;2022-08-19T10:37:38;1.20;;;1.20;;
13347;SDS011;6743;49.934;9.138;2022-08-19T10:40:05;1.00;;;1.00;;
13347;SDS011;6743;49.934;9.138;2022-08-19T10:42:32;1.30;;;1.17;;
13347;SDS011;6743;49.934;9.138;2022-08-19T10:45:02;1.00;;;1.00;;
13347;SDS011;6743;49.934;9.138;2022-08-19T10:47:30;1.10;;;1.10;;
13347;SDS011;6743;49.934;9.138;2022-08-19T10:49:56;1.42;;;1.33;;
13347;SDS011;6743;49.934;9.138;2022-08-19T10:52:42;1.30;;;1.30;;
13347;SDS011;6743;49.934;9.138;2022-08-19T10:55:09;0.90;;;0.90;;
13347;SDS011;6743;49.934;9.138;2022-08-19T10:57:55;1.05;;;1.05;;
13347;SDS011;6743;49.934;9.138;2022-08-19T11:00:22;1.00;;;1.00;;
13347;SDS011;6743;49.934;9.138;2022-08-19T11:02:50;1.17;;;1.10;;
13347;SDS011;6743;49.934;9.138;2022-08-19T11:05:16;1.35;;;1.25;;
13347;SDS011;6743;49.934;9.138;2022-08-19T11:07:44;1.20;;;1.20;;
13347;SDS011;6743;49.934;9.138;2022-08-19T11:10:11;1.45;;;1.35;;
13347;SDS011;6743;49.934;9.138;2022-08-19T11:12:40;1.40;;;1.30;;
13347;SDS011;6743;49.934;9.138;2022-08-19T11:15:06;1.55;;;1.45;;
13347;SDS011;6743;49.934;9.138;2022-08-19T11:17:35;1.23;;;1.12;;
13347;SDS011;6743;49.934;9.138;2022-08-19T11:20:06;1.33;;;1.30;;
13347;SDS011;6743;49.934;9.138;2022-08-19T11:22:33;1.17;;;1.08;;
13347;SDS011;6743;49.934;9.138;2022-08-19T11:25:00;1.58;;;1.48;;
13347;SDS011;6743;49.934;9.138;2022-08-19T11:27:27;1.55;;;1.45;;
13347;SDS011;6743;49.934;9.138;2022-08-19T11:29:53;1.52;;;1.42;;
13347;SDS011;6743;49.934;9.138;2022-08-19T11:32:20;1.50;;;1.40;;
13347;SDS011;6743;49.934;9.138;2022-08-19T11:34:46;1.35;;;1.33;;
13347;SDS011;6743;49.934;9.138;2022-08-19T11:37:12;1.77;;;1.67;;
13347;SDS011;6743;49.934;9.138;2022-08-19T11:39:38;1.50;;;1.40;;
13347;SDS011;6743;49.934;9.138;2022-08-19T11:42:05;1.30;;;1.30;;
13347;SDS011;6743;49.934;9.138;2022-08-19T11:44:52;1.58;;;1.48;;
13347;SDS011;6743;49.934;9.138;2022-08-19T11:47:19;1.62;;;1.52;;
13347;SDS011;6743;49.934;9.138;2022-08-19T11:49:45;1.70;;;1.60;;
13347;SDS011;6743;49.934;9.138;2022-08-19T11:52:11;1.58;;;1.48;;
13347;SDS011;6743;49.934;9.138;2022-08-19T11:54:37;1.35;;;1.35;;
13347;SDS011;6743;49.934;9.138;2022-08-19T11:57:03;1.70;;;1.60;;
13347;SDS011;6743;49.934;9.138;2022-08-19T11:59:30;1.55;;;1.45;;
13347;SDS011;6743;49.934;9.138;2022-08-19T12:01:56;1.58;;;1.48;;
13347;SDS011;6743;49.934;9.138;2022-08-19T12:04:22;1.80;;;1.70;;
13347;SDS011;6743;49.934;9.138;2022-08-19T12:06:49;1.37;;;1.37;;
13347;SDS011;6743;49.934;9.138;2022-08-19T12:09:18;1.37;;;1.37;;
13347;SDS011;6743;49.934;9.138;2022-08-19T12:11:44;1.35;;;1.35;;
13347;SDS011;6743;49.934;9.138;2022-08-19T12:14:11;1.33;;;1.27;;
13347;SDS011;6743;49.934;9.138;2022-08-19T12:16:39;1.55;;;1.48;;
13347;SDS011;6743;49.934;9.138;2022-08-19T12:19:06;1.50;;;1.40;;
13347;SDS011;6743;49.934;9.138;2022-08-19T12:21:33;1.55;;;1.45;;
13347;SDS011;6743;49.934;9.138;2022-08-19T12:24:01;1.50;;;1.40;;
13347;SDS011;6743;49.934;9.138;2022-08-19T12:26:28;1.52;;;1.30;;
13347;SDS011;6743;49.934;9.138;2022-08-19T12:28:56;1.62;;;1.52;;
13347;SDS011;6743;49.934;9.138;2022-08-19T12:31:24;1.23;;;1.23;;
13347;SDS011;6743;49.934;9.138;2022-08-19T12:33:51;2.10;;;1.55;;
13347;SDS011;6743;49.934;9.138;2022-08-19T12:36:17;1.50;;;1.50;;
13347;SDS011;6743;49.934;9.138;2022-08-19T12:38:44;1.37;;;1.30;;
13347;SDS011;6743;49.934;9.138;2022-08-19T12:41:12;1.40;;;1.30;;
13347;SDS011;6743;49.934;9.138;2022-08-19T12:43:42;1.33;;;1.33;;
13347;SDS011;6743;49.934;9.138;2022-08-19T12:46:08;1.05;;;1.05;;
13347;SDS011;6743;49.934;9.138;2022-08-19T12:48:35;2.95;;;1.50;;
13347;SDS011;6743;49.934;9.138;2022-08-19T12:51:06;1.37;;;1.37;;
13347;SDS011;6743;49.934;9.138;2022-08-19T12:53:33;1.55;;;1.45;;
13347;SDS011;6743;49.934;9.138;2022-08-19T12:55:59;1.12;;;1.12;;
13347;SDS011;6743;49.934;9.138;2022-08-19T12:58:25;1.48;;;1.40;;
13347;SDS011;6743;49.934;9.138;2022-08-19T13:00:51;1.40;;;1.30;;
13347;SDS011;6743;49.934;9.138;2022-08-19T13:03:18;1.55;;;1.45;;
13347;SDS011;6743;49.934;9.138;2022-08-19T13:05:44;1.45;;;1.45;;
13347;SDS011;6743;49.934;9.138;2022-08-19T13:08:10;1.67;;;1.58;;
13347;SDS011;6743;49.934;9.138;2022-08-19T13:10:36;1.00;;;1.00;;
13347;SDS011;6743;49.934;9.138;2022-08-19T13:13:06;1.27;;;1.27;;
13347;SDS011;6743;49.934;9.138;2022-08-19T13:15:35;1.40;;;1.30;;
13347;SDS011;6743;49.934;9.138;2022-08-19T13:18:04;1.40;;;1.40;;
13347;SDS011;6743;49.934;9.138;2022-08-19T13:20:31;1.67;;;1.45;;
13347;SDS011;6743;49.934;9.138;2022-08-19T13:22:56;1.40;;;1.40;;
13347;SDS011;6743;49.934;9.138;2022-08-19T13:25:23;1.60;;;1.50;;
13347;SDS011;6743;49.934;9.138;2022-08-19T13:27:50;1.60;;;1.50;;
13347;SDS011;6743;49.934;9.138;2022-08-19T13:30:17;1.45;;;1.40;;
13347;SDS011;6743;49.934;9.138;2022-08-19T13:33:02;1.23;;;1.23;;
13347;SDS011;6743;49.934;9.138;2022-08-19T13:35:39;1.70;;;1.60;;
13347;SDS011;6743;49.934;9.138;2022-08-19T13:38:07;1.70;;;1.60;;
13347;SDS011;6743;49.934;9.138;2022-08-19T13:40:34;1.20;;;1.20;;
13347;SDS011;6743;49.934;9.138;2022-08-19T13:43:01;1.40;;;1.40;;
13347;SDS011;6743;49.934;9.138;2022-08-19T13:45:29;1.30;;;1.30;;
13347;SDS011;6743;49.934;9.138;2022-08-19T13:47:59;1.10;;;1.10;;
13347;SDS011;6743;49.934;9.138;2022-08-19T13:50:27;1.33;;;1.33;;
13347;SDS011;6743;49.934;9.138;2022-08-19T13:52:54;1.20;;;1.20;;
13347;SDS011;6743;49.934;9.138;2022-08-19T13:55:21;1.02;;;1.02;;
13347;SDS011;6743;49.934;9.138;2022-08-19T13:57:50;1.30;;;1.30;;
13347;SDS011;6743;49.934;9.138;2022-08-19T14:00:18;1.33;;;1.30;;
13347;SDS011;6743;49.934;9.138;2022-08-19T14:02:44;1.23;;;1.20;;
13347;SDS011;6743;49.934;9.138;2022-08-19T14:05:11;1.50;;;1.40;;
13347;SDS011;6743;49.934;9.138;2022-08-19T14:07:39;1.40;;;1.30;;
13347;SDS011;6743;49.934;9.138;2022-08-19T14:10:06;1.37;;;1.35;;
13347;SDS011;6743;49.934;9.138;2022-08-19T14:12:36;1.48;;;1.37;;
13347;SDS011;6743;49.934;9.138;2022-08-19T14:15:03;1.52;;;1.42;;
13347;SDS011;6743;49.934;9.138;2022-08-19T14:17:30;0.88;;;0.88;;
13347;SDS011;6743;49.934;9.138;2022-08-19T14:19:56;1.40;;;1.30;;
13347;SDS011;6743;49.934;9.138;2022-08-19T14:22:23;1.20;;;1.20;;
13347;SDS011;6743;49.934;9.138;2022-08-19T14:24:49;1.17;;;1.17;;
13347;SDS011;6743;49.934;9.138;2022-08-19T14:27:15;1.40;;;1.30;;
13347;SDS011;6743;49.934;9.138;2022-08-19T14:29:41;1.55;;;1.45;;
13347;SDS011;6743;49.934;9.138;2022-08-19T14:32:08;1.62;;;1.52;;
13347;SDS011;6743;49.934;9.138;2022-08-19T14:34:34;1.60;;;1.50;;
13347;SDS011;6743;49.934;9.138;2022-08-19T14:37:02;1.12;;;1.12;;
13347;SDS011;6743;49.934;9.138;2022-08-19T14:39:28;1.83;;;1.73;;
13347;SDS011;6743;49.934;9.138;2022-08-19T14:41:54;2.10;;;2.00;;
13347;SDS011;6743;49.934;9.138;2022-08-19T14:44:21;2.17;;;2.08;;
13347;SDS011;6743;49.934;9.138;2022-08-19T14:46:47;1.80;;;1.70;;
13347;SDS011;6743;49.934;9.138;2022-08-19T14:49:14;2.00;;;1.90;;
13347;SDS011;6743;49.934;9.138;2022-08-19T14:51:40;1.83;;;1.73;;
13347;SDS011;6743;49.934;9.138;2022-08-19T14:54:06;1.90;;;1.80;;
13347;SDS011;6743;49.934;9.138;2022-08-19T14:56:32;1.90;;;1.80;;
13347;SDS011;6743;49.934;9.138;2022-08-19T14:58:58;1.80;;;1.70;;
13347;SDS011;6743;49.934;9.138;2022-08-19T15:01:26;1.87;;;1.77;;
13347;SDS011;6743;49.934;9.138;2022-08-19T15:03:53;2.00;;;1.90;;
13347;SDS011;6743;49.934;9.138;2022-08-19T15:06:20;2.00;;;1.90;;